createdAt,value
2022-09-23T00:00:00.119Z,0.00
2022-09-23T00:00:32.410Z,0.00
2022-09-23T00:00:54.992Z,0.00
2022-09-23T00:01:17.402Z,0.00
2022-09-23T00:01:52.702Z,0.00
2022-09-23T00:02:24.306Z,0.00
2022-09-23T00:02:59.505Z,0.00
2022-09-23T00:03:21.987Z,0.00
2022-09-23T00:04:00.488Z,0.00
2022-09-23T00:04:32.196Z,0.00
2022-09-23T00:04:54.614Z,0.00
2022-09-23T00:05:17.010Z,0.00
2022-09-23T00:05:52.549Z,0.00
2022-09-23T00:06:23.999Z,0.00
2022-09-23T00:06:56.168Z,0.00
2022-09-23T00:07:22.090Z,0.00
2022-09-23T00:08:00.408Z,0.00
2022-09-23T00:08:32.159Z,0.00
2022-09-23T00:08:54.751Z,0.00
2022-09-23T00:09:16.890Z,0.00
2022-09-23T00:09:52.418Z,0.00
2022-09-23T00:10:24.087Z,0.00
2022-09-23T00:10:56.132Z,0.00
2022-09-23T00:11:25.840Z,0.00
2022-09-23T00:12:00.721Z,0.00
2022-09-23T00:12:33.438Z,0.00
2022-09-23T00:13:01.502Z,0.00
2022-09-23T00:13:18.589Z,0.00
2022-09-23T00:13:55.335Z,0.00
2022-09-23T00:14:17.808Z,0.00
2022-09-23T00:14:56.264Z,0.00
2022-09-23T00:15:25.847Z,0.00
2022-09-23T00:16:00.041Z,0.00
2022-09-23T00:16:31.938Z,0.00
2022-09-23T00:16:54.641Z,0.00
2022-09-23T00:17:16.966Z,0.00
2022-09-23T00:17:52.085Z,0.00
2022-09-23T00:18:24.074Z,0.00
2022-09-23T00:18:55.870Z,0.00
2022-09-23T00:19:25.788Z,0.00
2022-09-23T00:20:00.086Z,0.00
2022-09-23T00:20:32.016Z,0.00
2022-09-23T00:20:54.797Z,0.00
2022-09-23T00:21:17.119Z,0.00
2022-09-23T00:21:52.052Z,0.00
2022-09-23T00:22:24.030Z,0.00
2022-09-23T00:22:55.864Z,0.00
2022-09-23T00:23:25.799Z,0.00
2022-09-23T00:24:00.145Z,0.00
2022-09-23T00:24:32.026Z,0.00
2022-09-23T00:24:54.737Z,0.00
2022-09-23T00:25:17.145Z,0.00
2022-09-23T00:25:51.901Z,0.00
2022-09-23T00:26:24.097Z,0.00
2022-09-23T00:26:56.007Z,0.00
2022-09-23T00:27:25.699Z,0.00
2022-09-23T00:27:59.899Z,0.00
2022-09-23T00:28:31.919Z,0.00
2022-09-23T00:28:54.983Z,0.00
2022-09-23T00:29:17.369Z,0.00
2022-09-23T00:29:51.932Z,0.00
2022-09-23T00:30:24.149Z,0.00
2022-09-23T00:30:56.065Z,0.00
2022-09-23T00:31:25.864Z,0.00
2022-09-23T00:32:00.539Z,0.00
2022-09-23T00:32:32.010Z,0.00
2022-09-23T00:32:54.962Z,0.00
2022-09-23T00:33:17.298Z,0.00
2022-09-23T00:33:52.085Z,0.00
2022-09-23T00:34:24.045Z,0.00
2022-09-23T00:34:55.920Z,0.00
2022-09-23T00:35:25.697Z,0.00
2022-09-23T00:35:59.880Z,0.00
2022-09-23T00:36:31.997Z,0.00
2022-09-23T00:36:54.720Z,0.00
2022-09-23T00:37:18.652Z,0.00
2022-09-23T00:37:51.973Z,0.00
2022-09-23T00:38:24.040Z,0.00
2022-09-23T00:38:56.507Z,0.00
2022-09-23T00:39:25.679Z,0.00
2022-09-23T00:40:00.001Z,0.00
2022-09-23T00:40:32.114Z,0.00
2022-09-23T00:40:54.781Z,0.00
2022-09-23T00:41:17.471Z,0.00
2022-09-23T00:41:52.162Z,0.00
2022-09-23T00:42:23.914Z,0.00
2022-09-23T00:42:55.894Z,0.00
2022-09-23T00:43:25.962Z,0.00
2022-09-23T00:44:00.050Z,0.00
2022-09-23T00:44:32.274Z,0.00
2022-09-23T00:44:54.858Z,0.00
2022-09-23T00:45:17.226Z,0.00
2022-09-23T00:45:52.248Z,0.00
2022-09-23T00:46:24.199Z,0.00
2022-09-23T00:46:55.876Z,0.00
2022-09-23T00:47:25.829Z,0.00
2022-09-23T00:48:00.241Z,0.00
2022-09-23T00:48:32.008Z,0.00
2022-09-23T00:48:55.396Z,0.00
2022-09-23T00:49:17.572Z,0.00
2022-09-23T00:49:52.018Z,0.00
2022-09-23T00:50:24.107Z,0.00
2022-09-23T00:50:55.989Z,0.00
2022-09-23T00:51:25.689Z,0.00
2022-09-23T00:51:59.945Z,0.00
2022-09-23T00:52:32.042Z,0.00
2022-09-23T00:52:55.002Z,0.00
2022-09-23T00:53:17.387Z,0.00
2022-09-23T00:53:51.883Z,0.00
2022-09-23T00:54:24.041Z,0.00
2022-09-23T00:54:55.950Z,0.00
2022-09-23T00:55:27.980Z,0.00
2022-09-23T00:56:00.054Z,0.00
2022-09-23T00:56:31.913Z,0.00
2022-09-23T00:56:54.886Z,0.00
2022-09-23T00:57:17.223Z,0.00
2022-09-23T00:57:52.002Z,0.00
2022-09-23T00:58:23.875Z,0.00
2022-09-23T00:58:56.028Z,0.00
2022-09-23T00:59:25.693Z,0.00
2022-09-23T00:59:59.983Z,0.00
2022-09-23T01:00:32.105Z,0.00
2022-09-23T01:00:56.622Z,0.00
2022-09-23T01:01:19.489Z,0.00
2022-09-23T01:01:52.469Z,0.00
2022-09-23T01:02:24.104Z,0.00
2022-09-23T01:02:56.086Z,0.00
2022-09-23T01:03:26.093Z,0.00
2022-09-23T01:04:00.022Z,0.00
2022-09-23T01:04:33.515Z,0.00
2022-09-23T01:04:56.214Z,0.00
2022-09-23T01:05:18.539Z,0.00
2022-09-23T01:05:53.052Z,0.00
2022-09-23T01:06:24.266Z,0.00
2022-09-23T01:06:56.389Z,0.00
2022-09-23T01:07:25.911Z,0.00
2022-09-23T01:08:00.135Z,0.00
2022-09-23T01:08:32.343Z,0.00
2022-09-23T01:08:54.988Z,0.00
2022-09-23T01:09:17.534Z,0.00
2022-09-23T01:09:51.916Z,0.00
2022-09-23T01:10:24.651Z,0.00
2022-09-23T01:10:56.051Z,0.00
2022-09-23T01:11:25.819Z,0.00
2022-09-23T01:11:59.852Z,0.00
2022-09-23T01:12:32.489Z,0.00
2022-09-23T01:12:55.130Z,0.00
2022-09-23T01:13:18.564Z,0.00
2022-09-23T01:13:52.292Z,0.00
2022-09-23T01:14:25.650Z,0.00
2022-09-23T01:15:02.578Z,0.00
2022-09-23T01:15:24.752Z,0.00
2022-09-23T01:15:59.932Z,0.00
2022-09-23T01:16:32.042Z,0.00
2022-09-23T01:16:54.828Z,0.00
2022-09-23T01:17:17.137Z,0.00
2022-09-23T01:17:52.087Z,0.00
2022-09-23T01:18:23.865Z,0.00
2022-09-23T01:18:56.011Z,0.00
2022-09-23T01:19:28.328Z,0.00
2022-09-23T01:20:00.062Z,0.00
2022-09-23T01:20:32.052Z,0.00
2022-09-23T01:20:55.215Z,0.00
2022-09-23T01:21:17.466Z,0.00
2022-09-23T01:21:51.936Z,0.00
2022-09-23T01:22:21.440Z,0.00
2022-09-23T01:22:56.092Z,0.00
2022-09-23T01:23:26.088Z,0.00
2022-09-23T01:23:59.840Z,0.00
2022-09-23T01:24:33.546Z,0.00
2022-09-23T01:24:56.263Z,0.00
2022-09-23T01:25:18.911Z,0.00
2022-09-23T01:25:58.511Z,0.00
2022-09-23T01:26:24.397Z,0.00
2022-09-23T01:31:44.383Z,0.00
2022-09-23T01:32:06.577Z,0.00
2022-09-23T01:32:29.444Z,0.00
2022-09-23T01:32:51.847Z,0.00
2022-09-23T01:33:14.486Z,0.00
2022-09-23T01:33:52.747Z,0.00
2022-09-23T01:34:24.275Z,0.00
2022-09-23T01:34:57.478Z,0.00
2022-09-23T01:35:26.684Z,0.00
2022-09-23T01:36:00.838Z,0.00
2022-09-23T01:36:31.965Z,0.00
2022-09-23T01:36:54.824Z,0.00
2022-09-23T01:37:18.796Z,0.00
2022-09-23T01:37:52.491Z,0.00
2022-09-23T01:38:24.870Z,0.00
2022-09-23T01:38:56.570Z,0.00
2022-09-23T01:39:26.193Z,0.00
2022-09-23T01:40:00.024Z,0.00
2022-09-23T01:40:33.288Z,0.00
2022-09-23T01:40:55.872Z,0.00
2022-09-23T01:41:18.301Z,0.00
2022-09-23T01:41:52.027Z,0.00
2022-09-23T01:42:23.928Z,0.00
2022-09-23T01:42:57.553Z,0.00
2022-09-23T01:43:25.919Z,0.00
2022-09-23T01:44:00.618Z,0.00
2022-09-23T01:44:33.180Z,0.00
2022-09-23T01:44:55.824Z,0.00
2022-09-23T01:45:18.262Z,0.00
2022-09-23T01:45:52.176Z,0.00
2022-09-23T01:46:24.700Z,0.00
2022-09-23T01:46:59.792Z,0.00
2022-09-23T01:47:26.818Z,0.00
2022-09-23T01:48:00.446Z,0.00
2022-09-23T01:48:32.047Z,0.00
2022-09-23T01:48:54.760Z,0.00
2022-09-23T01:49:17.407Z,0.00
2022-09-23T01:49:52.492Z,0.00
2022-09-23T01:50:24.018Z,0.00
2022-09-23T01:50:56.207Z,0.00
2022-09-23T01:51:26.010Z,0.00
2022-09-23T01:52:00.760Z,0.00
2022-09-23T01:52:32.036Z,0.00
2022-09-23T01:52:54.611Z,0.00
2022-09-23T01:53:17.432Z,0.00
2022-09-23T01:53:52.160Z,0.00
2022-09-23T01:54:24.110Z,0.00
2022-09-23T01:54:56.028Z,0.00
2022-09-23T01:55:26.347Z,0.00
2022-09-23T01:55:59.906Z,0.00
2022-09-23T01:56:32.436Z,0.00
2022-09-23T01:56:55.101Z,0.00
2022-09-23T01:57:17.789Z,0.00
2022-09-23T01:57:51.987Z,0.00
2022-09-23T01:58:24.039Z,0.00
2022-09-23T01:58:56.757Z,0.00
2022-09-23T01:59:29.165Z,0.00
2022-09-23T02:00:00.089Z,0.00
2022-09-23T02:00:32.341Z,0.00
2022-09-23T02:01:02.547Z,0.00
2022-09-23T02:01:17.747Z,0.00
2022-09-23T02:01:52.917Z,0.00
2022-09-23T02:02:26.813Z,0.00
2022-09-23T02:02:56.530Z,0.00
2022-09-23T02:03:26.508Z,0.00
2022-09-23T02:03:59.911Z,0.00
2022-09-23T02:04:32.106Z,0.00
2022-09-23T02:04:54.895Z,0.00
2022-09-23T02:05:17.173Z,0.00
2022-09-23T02:05:52.056Z,0.00
2022-09-23T02:06:24.456Z,0.00
2022-09-23T02:06:56.516Z,0.00
2022-09-23T02:07:25.958Z,0.00
2022-09-23T02:08:00.027Z,0.00
2022-09-23T02:08:32.422Z,0.00
2022-09-23T02:08:54.979Z,0.00
2022-09-23T02:09:17.455Z,0.00
2022-09-23T02:09:54.018Z,0.00
2022-09-23T02:10:24.061Z,0.00
2022-09-23T02:10:55.854Z,0.00
2022-09-23T02:11:26.234Z,0.00
2022-09-23T02:12:00.215Z,0.00
2022-09-23T02:12:33.293Z,0.00
2022-09-23T02:12:55.976Z,0.00
2022-09-23T02:13:18.585Z,0.00
2022-09-23T02:13:51.981Z,0.00
2022-09-23T02:14:26.649Z,0.00
2022-09-23T02:14:56.167Z,0.00
2022-09-23T02:15:25.884Z,0.00
2022-09-23T02:16:00.416Z,0.00
2022-09-23T02:16:32.021Z,0.00
2022-09-23T02:16:54.673Z,0.00
2022-09-23T02:17:17.184Z,0.00
2022-09-23T02:17:55.365Z,0.00
2022-09-23T02:18:24.779Z,0.00
2022-09-23T02:18:56.476Z,0.00
2022-09-23T02:19:26.181Z,0.00
2022-09-23T02:20:01.324Z,0.00
2022-09-23T02:20:32.438Z,0.00
2022-09-23T02:20:56.720Z,0.00
2022-09-23T02:21:17.937Z,0.00
2022-09-23T02:21:56.955Z,0.00
2022-09-23T02:22:23.993Z,0.00
2022-09-23T02:23:04.238Z,0.00
2022-09-23T02:23:27.098Z,0.00
2022-09-23T02:24:00.235Z,0.00
2022-09-23T02:24:32.471Z,0.00
2022-09-23T02:24:54.604Z,0.00
2022-09-23T02:25:18.056Z,0.00
2022-09-23T02:25:52.341Z,0.00
2022-09-23T02:26:26.332Z,0.00
2022-09-23T02:26:57.562Z,0.00
2022-09-23T02:27:29.148Z,0.00
2022-09-23T02:27:59.803Z,0.00
2022-09-23T02:28:32.247Z,0.00
2022-09-23T02:28:54.973Z,0.00
2022-09-23T02:29:17.391Z,0.00
2022-09-23T02:29:53.050Z,0.00
2022-09-23T02:30:24.056Z,0.00
2022-09-23T02:30:57.852Z,0.00
2022-09-23T02:31:25.891Z,0.00
2022-09-23T02:32:03.437Z,0.00
2022-09-23T02:32:25.982Z,0.00
2022-09-23T02:32:57.550Z,0.00
2022-09-23T02:33:20.118Z,0.00
2022-09-23T02:33:52.358Z,0.00
2022-09-23T02:34:24.735Z,0.00
2022-09-23T02:34:55.952Z,0.00
2022-09-23T02:35:26.603Z,0.00
2022-09-23T02:35:59.878Z,0.00
2022-09-23T02:36:32.052Z,0.00
2022-09-23T02:36:54.706Z,0.00
2022-09-23T02:37:23.339Z,0.00
2022-09-23T02:37:52.842Z,0.00
2022-09-23T02:38:24.156Z,0.00
2022-09-23T02:38:56.595Z,0.00
2022-09-23T02:39:26.065Z,0.00
2022-09-23T02:40:01.454Z,0.00
2022-09-23T02:40:32.076Z,0.00
2022-09-23T02:40:54.876Z,0.00
2022-09-23T02:41:17.545Z,0.00
2022-09-23T02:41:52.100Z,0.00
2022-09-23T02:42:24.043Z,0.00
2022-09-23T02:42:55.898Z,0.00
2022-09-23T02:43:26.461Z,0.00
2022-09-23T02:44:00.080Z,0.00
2022-09-23T02:44:31.941Z,0.00
2022-09-23T02:44:54.739Z,0.00
2022-09-23T02:45:17.594Z,0.00
2022-09-23T02:45:53.257Z,0.00
2022-09-23T02:46:24.094Z,0.00
2022-09-23T02:46:57.318Z,0.00
2022-09-23T02:47:28.238Z,0.00
2022-09-23T02:48:01.478Z,0.00
2022-09-23T02:48:32.866Z,0.00
2022-09-23T02:48:55.035Z,0.00
2022-09-23T02:49:20.833Z,0.00
2022-09-23T02:49:51.974Z,0.00
2022-09-23T02:50:25.293Z,0.00
2022-09-23T02:50:56.165Z,0.00
2022-09-23T02:51:27.309Z,0.00
2022-09-23T02:52:00.474Z,0.00
2022-09-23T02:52:34.315Z,0.00
2022-09-23T02:52:55.612Z,0.00
2022-09-23T02:53:18.859Z,0.00
2022-09-23T02:53:52.039Z,0.00
2022-09-23T02:54:24.341Z,0.00
2022-09-23T02:54:56.409Z,0.00
2022-09-23T02:55:25.908Z,0.00
2022-09-23T02:56:00.596Z,0.00
2022-09-23T02:56:31.934Z,0.00
2022-09-23T02:56:54.700Z,0.00
2022-09-23T02:57:18.488Z,0.00
2022-09-23T02:57:52.392Z,0.00
2022-09-23T02:58:26.631Z,0.00
2022-09-23T02:58:56.295Z,0.00
2022-09-23T02:59:31.782Z,0.00
2022-09-23T02:59:59.889Z,0.00
2022-09-23T03:00:33.022Z,0.00
2022-09-23T03:00:55.731Z,0.00
2022-09-23T03:01:18.596Z,0.00
2022-09-23T03:01:52.053Z,0.00
2022-09-23T03:02:24.015Z,0.00
2022-09-23T03:02:56.067Z,0.00
2022-09-23T03:03:26.953Z,0.00
2022-09-23T03:03:59.978Z,0.00
2022-09-23T03:04:32.340Z,0.00
2022-09-23T03:04:55.012Z,0.00
2022-09-23T03:05:17.442Z,0.00
2022-09-23T03:05:51.923Z,0.00
2022-09-23T03:06:23.898Z,0.00
2022-09-23T03:06:55.981Z,0.00
2022-09-23T03:07:25.893Z,0.00
2022-09-23T03:07:59.929Z,0.00
2022-09-23T03:08:31.869Z,0.00
2022-09-23T03:08:54.812Z,0.00
2022-09-23T03:09:17.728Z,0.00
2022-09-23T03:09:52.381Z,0.00
2022-09-23T03:10:24.659Z,0.00
2022-09-23T03:10:56.314Z,0.00
2022-09-23T03:11:27.343Z,0.00
2022-09-23T03:11:59.963Z,0.00
2022-09-23T03:12:31.973Z,0.00
2022-09-23T03:12:54.600Z,0.00
2022-09-23T03:13:17.833Z,0.00
2022-09-23T03:13:51.940Z,0.00
2022-09-23T03:14:24.716Z,0.00
2022-09-23T03:14:56.354Z,0.00
2022-09-23T03:15:26.423Z,0.00
2022-09-23T03:16:00.614Z,0.00
2022-09-23T03:16:32.355Z,0.00
2022-09-23T03:16:55.418Z,0.00
2022-09-23T03:17:17.848Z,0.00
2022-09-23T03:17:53.912Z,0.00
2022-09-23T03:18:24.395Z,0.00
2022-09-23T03:18:56.917Z,0.00
2022-09-23T03:19:27.896Z,0.00
2022-09-23T03:20:00.539Z,0.00
2022-09-23T03:20:31.966Z,0.00
2022-09-23T03:20:54.564Z,0.00
2022-09-23T03:21:17.049Z,0.00
2022-09-23T03:21:52.404Z,0.00
2022-09-23T03:22:24.214Z,0.00
2022-09-23T03:22:56.006Z,0.00
2022-09-23T03:23:28.399Z,0.00
2022-09-23T03:24:00.069Z,0.00
2022-09-23T03:24:32.010Z,0.00
2022-09-23T03:24:54.733Z,0.00
2022-09-23T03:25:17.787Z,0.00
2022-09-23T03:25:53.197Z,0.00
2022-09-23T03:26:24.157Z,0.00
2022-09-23T03:26:55.856Z,0.00
2022-09-23T03:27:26.565Z,0.00
2022-09-23T03:28:00.188Z,0.00
2022-09-23T03:28:32.194Z,0.00
2022-09-23T03:28:54.981Z,0.00
2022-09-23T03:29:18.194Z,0.00
2022-09-23T03:29:51.861Z,0.00
2022-09-23T03:30:24.066Z,0.00
2022-09-23T03:30:55.939Z,0.00
2022-09-23T03:31:25.989Z,0.00
2022-09-23T03:32:00.012Z,0.00
2022-09-23T03:32:32.705Z,0.00
2022-09-23T03:32:55.491Z,0.00
2022-09-23T03:33:17.959Z,0.00
2022-09-23T03:33:52.339Z,0.00
2022-09-23T03:34:24.074Z,0.00
2022-09-23T03:34:55.997Z,0.00
2022-09-23T03:35:25.706Z,0.00
2022-09-23T03:36:00.301Z,0.00
2022-09-23T03:36:32.086Z,0.00
2022-09-23T03:36:54.686Z,0.00
2022-09-23T03:37:22.760Z,0.00
2022-09-23T03:37:53.211Z,0.00
2022-09-23T03:38:24.194Z,0.00
2022-09-23T03:38:57.049Z,0.00
2022-09-23T03:39:28.522Z,0.00
2022-09-23T03:40:00.720Z,0.00
2022-09-23T03:40:32.630Z,0.00
2022-09-23T03:40:55.290Z,0.00
2022-09-23T03:41:17.547Z,0.00
2022-09-23T03:41:52.025Z,0.00
2022-09-23T03:42:23.847Z,0.00
2022-09-23T03:42:56.245Z,0.00
2022-09-23T03:43:25.891Z,0.00
2022-09-23T03:44:00.138Z,0.00
2022-09-23T03:44:31.982Z,0.00
2022-09-23T03:44:54.665Z,0.00
2022-09-23T03:45:17.242Z,0.00
2022-09-23T03:45:52.179Z,0.00
2022-09-23T03:46:24.362Z,0.00
2022-09-23T03:46:55.876Z,0.00
2022-09-23T03:47:26.965Z,0.00
2022-09-23T03:48:00.279Z,0.00
2022-09-23T03:48:32.755Z,0.00
2022-09-23T03:48:55.453Z,0.00
2022-09-23T03:49:17.889Z,0.00
2022-09-23T03:49:52.865Z,0.00
2022-09-23T03:50:25.300Z,0.00
2022-09-23T03:50:56.654Z,0.00
2022-09-23T03:51:25.903Z,0.00
2022-09-23T03:52:00.203Z,0.00
2022-09-23T03:52:32.042Z,0.00
2022-09-23T03:52:54.648Z,0.00
2022-09-23T03:53:17.382Z,0.00
2022-09-23T03:53:51.962Z,0.00
2022-09-23T03:54:24.861Z,0.00
2022-09-23T03:54:55.977Z,0.00
2022-09-23T03:55:25.894Z,0.00
2022-09-23T03:55:59.886Z,0.00
2022-09-23T03:56:32.009Z,0.00
2022-09-23T03:56:55.006Z,0.00
2022-09-23T03:57:17.222Z,0.00
2022-09-23T03:57:52.871Z,0.00
2022-09-23T03:58:23.754Z,0.00
2022-09-23T03:58:56.270Z,0.00
2022-09-23T03:59:26.015Z,0.00
2022-09-23T03:59:59.887Z,0.00
2022-09-23T04:00:31.867Z,0.00
2022-09-23T04:00:56.249Z,0.00
2022-09-23T04:01:18.647Z,0.00
2022-09-23T04:01:52.279Z,0.00
2022-09-23T04:02:25.972Z,0.00
2022-09-23T04:02:59.591Z,0.00
2022-09-23T04:03:22.281Z,0.00
2022-09-23T04:04:00.307Z,0.00
2022-09-23T04:04:31.945Z,0.00
2022-09-23T04:04:55.911Z,0.00
2022-09-23T04:05:18.062Z,0.00
2022-09-23T04:05:51.912Z,0.00
2022-09-23T04:06:23.919Z,0.00
2022-09-23T04:06:55.818Z,0.00
2022-09-23T04:07:25.762Z,0.00
2022-09-23T04:07:59.887Z,0.00
2022-09-23T04:08:31.946Z,0.00
2022-09-23T04:08:54.585Z,0.00
2022-09-23T04:09:17.000Z,0.00
2022-09-23T04:09:51.923Z,0.00
2022-09-23T04:10:23.936Z,0.00
2022-09-23T04:10:55.906Z,0.00
2022-09-23T04:11:25.776Z,0.00
2022-09-23T04:11:59.894Z,0.00
2022-09-23T04:12:32.038Z,0.00
2022-09-23T04:12:54.967Z,0.00
2022-09-23T04:13:17.347Z,0.00
2022-09-23T04:13:51.935Z,0.00
2022-09-23T04:14:24.015Z,0.00
2022-09-23T04:14:55.987Z,0.00
2022-09-23T04:15:25.967Z,0.00
2022-09-23T04:15:59.968Z,0.00
2022-09-23T04:16:32.071Z,0.00
2022-09-23T04:16:54.689Z,0.00
2022-09-23T04:17:16.996Z,0.00
2022-09-23T04:17:51.950Z,0.00
2022-09-23T04:18:23.798Z,0.00
2022-09-23T04:18:55.803Z,0.00
2022-09-23T04:19:25.710Z,0.00
2022-09-23T04:19:59.750Z,0.00
2022-09-23T04:20:31.939Z,0.00
2022-09-23T04:20:54.942Z,0.00
2022-09-23T04:21:17.337Z,0.00
2022-09-23T04:21:51.897Z,0.00
2022-09-23T04:22:25.361Z,0.00
2022-09-23T04:22:55.792Z,0.00
2022-09-23T04:23:26.064Z,0.00
2022-09-23T04:23:59.850Z,0.00
2022-09-23T04:24:33.380Z,0.00
2022-09-23T04:24:55.040Z,0.00
2022-09-23T04:25:17.447Z,0.00
2022-09-23T04:25:51.955Z,0.00
2022-09-23T04:26:23.874Z,0.00
2022-09-23T04:26:55.914Z,0.00
2022-09-23T04:27:25.775Z,0.00
2022-09-23T04:27:59.926Z,0.00
2022-09-23T04:28:33.285Z,0.00
2022-09-23T04:28:55.059Z,0.00
2022-09-23T04:29:17.279Z,0.00
2022-09-23T04:29:52.041Z,0.00
2022-09-23T04:30:23.873Z,0.00
2022-09-23T04:30:55.831Z,0.00
2022-09-23T04:31:26.018Z,0.00
2022-09-23T04:32:00.010Z,0.00
2022-09-23T04:32:32.014Z,0.00
2022-09-23T04:32:54.679Z,0.00
2022-09-23T04:33:16.965Z,0.00
2022-09-23T04:33:51.898Z,0.00
2022-09-23T04:34:23.883Z,0.00
2022-09-23T04:34:56.318Z,0.00
2022-09-23T04:35:25.733Z,0.00
2022-09-23T04:35:59.804Z,0.00
2022-09-23T04:36:31.978Z,0.00
2022-09-23T04:36:54.821Z,0.00
2022-09-23T04:37:22.742Z,0.00
2022-09-23T04:37:51.866Z,0.00
2022-09-23T04:38:23.965Z,0.00
2022-09-23T04:38:55.809Z,0.00
2022-09-23T04:39:25.821Z,0.00
2022-09-23T04:39:59.825Z,0.00
2022-09-23T04:40:31.999Z,0.00
2022-09-23T04:40:54.591Z,0.00
2022-09-23T04:41:17.030Z,0.00
2022-09-23T04:41:51.904Z,0.00
2022-09-23T04:42:23.766Z,0.00
2022-09-23T04:42:55.870Z,0.00
2022-09-23T04:43:25.855Z,0.00
2022-09-23T04:44:03.404Z,0.00
2022-09-23T04:44:31.863Z,0.00
2022-09-23T04:44:54.775Z,0.00
2022-09-23T04:45:17.089Z,0.00
2022-09-23T04:45:52.020Z,0.00
2022-09-23T04:46:24.067Z,0.00
2022-09-23T04:46:55.987Z,0.00
2022-09-23T04:47:25.798Z,0.00
2022-09-23T04:48:01.415Z,0.00
2022-09-23T04:48:34.421Z,0.00
2022-09-23T04:48:56.336Z,0.00
2022-09-23T04:49:18.576Z,0.00
2022-09-23T04:49:52.075Z,0.00
2022-09-23T04:50:23.879Z,0.00
2022-09-23T04:50:55.785Z,0.00
2022-09-23T04:51:22.014Z,0.00
2022-09-23T04:52:00.454Z,0.00
2022-09-23T04:52:31.848Z,0.00
2022-09-23T04:52:54.487Z,0.00
2022-09-23T04:53:16.899Z,0.00
2022-09-23T04:53:52.478Z,0.00
2022-09-23T04:54:24.354Z,0.00
2022-09-23T04:54:56.152Z,0.00
2022-09-23T04:55:26.046Z,0.00
2022-09-23T04:55:59.805Z,0.00
2022-09-23T04:56:31.991Z,0.00
2022-09-23T04:56:54.616Z,0.00
2022-09-23T04:57:17.278Z,0.00
2022-09-23T04:57:52.077Z,0.00
2022-09-23T04:58:23.971Z,0.00
2022-09-23T04:58:57.332Z,0.00
2022-09-23T04:59:28.201Z,0.00
2022-09-23T04:59:59.900Z,0.00
2022-09-23T05:00:31.974Z,0.00
2022-09-23T05:00:54.575Z,0.00
2022-09-23T05:01:16.977Z,0.00
2022-09-23T05:01:52.088Z,0.00
2022-09-23T05:02:24.035Z,0.00
2022-09-23T05:02:56.982Z,0.00
2022-09-23T05:03:28.807Z,0.00
2022-09-23T05:03:59.939Z,0.00
2022-09-23T05:04:32.173Z,0.00
2022-09-23T05:04:54.877Z,0.00
2022-09-23T05:05:17.352Z,0.00
2022-09-23T05:05:52.120Z,0.00
2022-09-23T05:06:23.842Z,0.00
2022-09-23T05:07:02.231Z,0.00
2022-09-23T05:07:25.953Z,0.00
2022-09-23T05:08:00.722Z,0.00
2022-09-23T05:08:31.995Z,0.00
2022-09-23T05:08:54.707Z,0.00
2022-09-23T05:09:17.849Z,0.00
2022-09-23T05:09:52.283Z,0.00
2022-09-23T05:10:24.092Z,0.36
2022-09-23T05:10:56.018Z,0.00
2022-09-23T05:11:26.242Z,0.36
2022-09-23T05:12:00.213Z,0.00
2022-09-23T05:12:32.629Z,0.85
2022-09-23T05:12:57.349Z,0.00
2022-09-23T05:13:17.633Z,0.36
2022-09-23T05:13:52.233Z,0.85
2022-09-23T05:14:24.135Z,0.36
2022-09-23T05:14:56.778Z,1.22
2022-09-23T05:15:27.090Z,1.22
2022-09-23T05:16:00.483Z,0.85
2022-09-23T05:16:32.328Z,1.22
2022-09-23T05:16:55.038Z,1.22
2022-09-23T05:17:18.479Z,0.85
2022-09-23T05:18:00.189Z,2.08
2022-09-23T05:18:24.440Z,1.71
2022-09-23T05:18:55.978Z,1.71
2022-09-23T05:19:31.744Z,2.08
2022-09-23T05:19:59.934Z,1.22
2022-09-23T05:20:32.017Z,2.08
2022-09-23T05:20:54.846Z,2.94
2022-09-23T05:21:20.974Z,2.08
2022-09-23T05:21:52.108Z,2.94
2022-09-23T05:22:24.498Z,2.57
2022-09-23T05:22:56.549Z,2.57
2022-09-23T05:23:26.194Z,2.94
2022-09-23T05:23:59.991Z,2.94
2022-09-23T05:24:31.897Z,3.43
2022-09-23T05:24:54.591Z,3.79
2022-09-23T05:25:19.437Z,4.28
2022-09-23T05:25:52.127Z,3.43
2022-09-23T05:26:23.982Z,4.28
2022-09-23T05:26:55.959Z,4.28
2022-09-23T05:27:25.999Z,4.28
2022-09-23T05:28:05.392Z,4.77
2022-09-23T05:28:32.654Z,4.77
2022-09-23T05:28:55.239Z,4.77
2022-09-23T05:29:18.492Z,5.14
2022-09-23T05:29:52.966Z,4.77
2022-09-23T05:30:24.289Z,5.14
2022-09-23T05:30:56.497Z,5.14
2022-09-23T05:31:26.131Z,5.63
2022-09-23T05:32:00.895Z,5.14
2022-09-23T05:32:32.216Z,5.63
2022-09-23T05:32:55.000Z,5.99
2022-09-23T05:33:17.762Z,5.63
2022-09-23T05:33:52.384Z,6.48
2022-09-23T05:34:24.866Z,6.48
2022-09-23T05:34:56.011Z,7.34
2022-09-23T05:35:26.036Z,6.85
2022-09-23T05:35:59.979Z,6.85
2022-09-23T05:36:36.984Z,7.34
2022-09-23T05:36:54.742Z,6.85
2022-09-23T05:37:18.754Z,6.85
2022-09-23T05:37:53.540Z,7.34
2022-09-23T05:38:23.850Z,7.34
2022-09-23T05:38:56.124Z,7.70
2022-09-23T05:39:26.190Z,7.34
2022-09-23T05:40:00.813Z,7.70
2022-09-23T05:40:32.183Z,7.70
2022-09-23T05:40:54.804Z,7.70
2022-09-23T05:41:17.145Z,8.56
2022-09-23T05:41:52.163Z,8.56
2022-09-23T05:42:24.290Z,8.56
2022-09-23T05:42:55.843Z,9.54
2022-09-23T05:43:26.288Z,9.05
2022-09-23T05:44:00.238Z,9.54
2022-09-23T05:44:32.973Z,9.91
2022-09-23T05:44:55.642Z,9.91
2022-09-23T05:45:26.250Z,10.39
2022-09-23T05:45:52.510Z,10.39
2022-09-23T05:46:24.761Z,9.91
2022-09-23T05:46:56.929Z,10.77
2022-09-23T05:47:27.942Z,11.25
2022-09-23T05:48:00.416Z,11.25
2022-09-23T05:48:32.277Z,11.25
2022-09-23T05:48:59.879Z,11.62
2022-09-23T05:49:17.866Z,11.62
2022-09-23T05:49:59.524Z,12.48
2022-09-23T05:50:23.938Z,12.11
2022-09-23T05:50:56.465Z,12.48
2022-09-23T05:51:30.762Z,12.48
2022-09-23T05:52:00.241Z,12.97
2022-09-23T05:52:32.409Z,12.97
2022-09-23T05:52:54.952Z,13.82
2022-09-23T05:53:17.560Z,13.82
2022-09-23T05:53:52.227Z,14.31
2022-09-23T05:54:24.215Z,15.17
2022-09-23T05:54:56.304Z,14.31
2022-09-23T05:55:26.164Z,15.17
2022-09-23T05:56:00.446Z,16.02
2022-09-23T05:56:32.005Z,16.02
2022-09-23T05:56:54.748Z,16.02
2022-09-23T05:57:17.666Z,16.39
2022-09-23T05:57:52.049Z,16.88
2022-09-23T05:58:24.142Z,17.73
2022-09-23T05:58:56.608Z,17.25
2022-09-23T05:59:26.039Z,17.25
2022-09-23T05:59:59.907Z,18.60
2022-09-23T06:00:32.043Z,18.11
2022-09-23T06:00:54.796Z,18.60
2022-09-23T06:01:17.261Z,19.94
2022-09-23T06:01:56.287Z,19.94
2022-09-23T06:02:23.968Z,19.94
2022-09-23T06:02:56.671Z,20.80
2022-09-23T06:03:26.013Z,21.65
2022-09-23T06:04:00.240Z,22.02
2022-09-23T06:04:32.197Z,22.02
2022-09-23T06:04:54.872Z,22.51
2022-09-23T06:05:17.882Z,23.36
2022-09-23T06:05:52.525Z,24.71
2022-09-23T06:06:23.911Z,24.71
2022-09-23T06:06:56.072Z,25.07
2022-09-23T06:07:26.408Z,25.07
2022-09-23T06:08:00.146Z,27.65
2022-09-23T06:08:32.132Z,27.65
2022-09-23T06:08:54.807Z,27.65
2022-09-23T06:09:17.330Z,27.65
2022-09-23T06:09:53.815Z,28.99
2022-09-23T06:10:24.130Z,29.85
2022-09-23T06:10:59.651Z,31.19
2022-09-23T06:11:28.088Z,31.19
2022-09-23T06:12:00.634Z,32.05
2022-09-23T06:12:32.295Z,33.39
2022-09-23T06:12:55.063Z,33.76
2022-09-23T06:13:18.636Z,34.25
2022-09-23T06:13:52.536Z,35.48
2022-09-23T06:14:24.126Z,35.97
2022-09-23T06:14:56.053Z,37.19
2022-09-23T06:15:27.385Z,39.02
2022-09-23T06:16:00.141Z,39.88
2022-09-23T06:16:32.428Z,41.10
2022-09-23T06:16:55.039Z,40.24
2022-09-23T06:17:17.804Z,41.59
2022-09-23T06:17:54.139Z,42.94
2022-09-23T06:18:23.911Z,43.31
2022-09-23T06:18:56.036Z,44.65
2022-09-23T06:19:26.022Z,45.51
2022-09-23T06:20:00.921Z,47.71
2022-09-23T06:20:31.815Z,48.93
2022-09-23T06:20:54.548Z,48.93
2022-09-23T06:21:17.933Z,49.79
2022-09-23T06:21:51.893Z,50.65
2022-09-23T06:22:24.508Z,50.65
2022-09-23T06:22:56.018Z,51.99
2022-09-23T06:23:26.754Z,53.70
2022-09-23T06:24:00.101Z,55.41
2022-09-23T06:24:32.437Z,57.25
2022-09-23T06:24:55.011Z,58.48
2022-09-23T06:25:18.043Z,60.19
2022-09-23T06:25:52.652Z,60.19
2022-09-23T06:26:23.957Z,59.82
2022-09-23T06:26:56.361Z,60.68
2022-09-23T06:27:25.918Z,65.45
2022-09-23T06:28:01.721Z,68.51
2022-09-23T06:28:32.131Z,70.22
2022-09-23T06:28:55.336Z,70.22
2022-09-23T06:29:17.653Z,73.65
2022-09-23T06:29:52.053Z,74.14
2022-09-23T06:30:25.467Z,74.50
2022-09-23T06:30:56.003Z,74.50
2022-09-23T06:31:27.273Z,71.56
2022-09-23T06:31:59.920Z,79.76
2022-09-23T06:32:31.995Z,80.62
2022-09-23T06:32:54.730Z,80.62
2022-09-23T06:33:22.060Z,81.10
2022-09-23T06:33:59.508Z,81.97
2022-09-23T06:34:24.514Z,82.33
2022-09-23T06:34:56.476Z,81.48
2022-09-23T06:35:27.597Z,77.19
2022-09-23T06:36:00.090Z,72.79
2022-09-23T06:36:40.551Z,72.79
2022-09-23T06:36:55.156Z,74.14
2022-09-23T06:37:23.047Z,78.90
2022-09-23T06:37:52.110Z,76.34
2022-09-23T06:38:24.419Z,77.19
2022-09-23T06:38:56.158Z,77.19
2022-09-23T06:39:27.856Z,76.34
2022-09-23T06:40:00.024Z,74.99
2022-09-23T06:40:32.086Z,76.34
2022-09-23T06:40:54.762Z,79.76
2022-09-23T06:41:17.451Z,84.53